This is the latest recevied weather packets stored in our database for station/object N0MR. If no packets are shown the sender has not sent any weather packets the latest 10 day(s).
| Time | Temp. | Humidity | Pressure | Rain* | Wind** | Luminosity | Snow |
|---|---|---|---|---|---|---|---|
| 1788491676 | 15° C | 94% | 1013 hPa | 5.08 mm | - | - | - |
| 1788491074 | 15.56° C | 93% | 1013.4 hPa | 4.57 mm | - | - | - |
| 1788490478 | 15.56° C | 93% | 1013.4 hPa | 4.57 mm | - | - | - |
| 1788489877 | 15.56° C | 91% | 1014.3 hPa | 2.79 mm | - | - | - |
| 1788489277 | 15.56° C | 91% | 1014.3 hPa | 2.79 mm | - | - | - |
| 1788488678 | 16.67° C | 84% | 1014.7 hPa | 0 mm | - | - | - |
| 1788488077 | 16.67° C | 84% | 1014.7 hPa | 0 mm | - | - | - |
| 1788487477 | 16.67° C | 81% | 1012.1 hPa | 0 mm | - | - | - |
| 1788471393 | 22.78° C | 61% | 1011.2 hPa | 0 mm | - | - | - |
| 1788470792 | 22.78° C | 61% | 1011.2 hPa | 0 mm | - | - | - |
| 1788470214 | 23.33° C | 60% | 1011.1 hPa | 0 mm | - | - | - |
| 1788469593 | 23.33° C | 60% | 1011.1 hPa | 0 mm | - | - | - |
| 1788468993 | 23.33° C | 61% | 1011.1 hPa | 0 mm | - | - | - |
| 1788468396 | 23.33° C | 61% | 1011.1 hPa | 0 mm | - | - | - |
| 1788467795 | 22.78° C | 61% | 1011.5 hPa | 0 mm | - | - | - |
| 1788467193 | 22.78° C | 61% | 1011.5 hPa | 0 mm | - | - | - |
| 1788466593 | 23.33° C | 58% | 1011.8 hPa | 0 mm | - | - | - |
| 1788465996 | 23.89° C | 62% | 1011.5 hPa | 0 mm | - | - | - |
| 1788465392 | 23.89° C | 62% | 1011.5 hPa | 0 mm | - | - | - |
| 1788464793 | 23.89° C | 59% | 1011.6 hPa | 0 mm | - | - | - |
| 1788464196 | 23.89° C | 59% | 1011.6 hPa | 0 mm | - | - | - |
| 1788463593 | 23.89° C | 60% | 1011.8 hPa | 0 mm | - | - | - |
| 1788462992 | 23.89° C | 60% | 1011.8 hPa | 0 mm | - | - | - |
| 1788462403 | 23.33° C | 61% | 1011.9 hPa | 0 mm | - | - | - |
| 1788461793 | 23.33° C | 61% | 1011.9 hPa | 0 mm | - | - | - |
* Rain latest hour (hover to see other rain measurements)
** Current wind speed in m/s (hover to see current wind gust speed)